sensor_id;sensor_type;location;lat;lon;timestamp;P1;durP1;ratioP1;P2;durP2;ratioP2
15295;SDS011;7749;49.964;7.890;2022-10-16T00:01:42;7.87;;;3.07;;
15295;SDS011;7749;49.964;7.890;2022-10-16T00:04:10;3.67;;;2.53;;
15295;SDS011;7749;49.964;7.890;2022-10-16T00:06:38;5.60;;;2.97;;
15295;SDS011;7749;49.964;7.890;2022-10-16T00:09:06;5.07;;;2.57;;
15295;SDS011;7749;49.964;7.890;2022-10-16T00:11:34;7.53;;;2.67;;
15295;SDS011;7749;49.964;7.890;2022-10-16T00:14:05;13.33;;;3.73;;
15295;SDS011;7749;49.964;7.890;2022-10-16T00:16:35;6.50;;;3.33;;
15295;SDS011;7749;49.964;7.890;2022-10-16T00:19:02;5.70;;;3.00;;
15295;SDS011;7749;49.964;7.890;2022-10-16T00:21:31;4.70;;;2.70;;
15295;SDS011;7749;49.964;7.890;2022-10-16T00:24:01;4.67;;;2.47;;
15295;SDS011;7749;49.964;7.890;2022-10-16T00:26:32;8.13;;;2.90;;
15295;SDS011;7749;49.964;7.890;2022-10-16T00:29:00;4.83;;;2.30;;
15295;SDS011;7749;49.964;7.890;2022-10-16T00:31:28;7.60;;;2.80;;
15295;SDS011;7749;49.964;7.890;2022-10-16T00:33:56;3.00;;;2.40;;
15295;SDS011;7749;49.964;7.890;2022-10-16T00:36:24;3.03;;;2.40;;
15295;SDS011;7749;49.964;7.890;2022-10-16T00:38:53;6.97;;;2.60;;
15295;SDS011;7749;49.964;7.890;2022-10-16T00:41:23;5.37;;;2.60;;
15295;SDS011;7749;49.964;7.890;2022-10-16T00:43:56;3.87;;;2.40;;
15295;SDS011;7749;49.964;7.890;2022-10-16T00:49:28;3.07;;;2.00;;
15295;SDS011;7749;49.964;7.890;2022-10-16T00:51:52;3.87;;;2.30;;
15295;SDS011;7749;49.964;7.890;2022-10-16T00:54:22;4.70;;;2.90;;
15295;SDS011;7749;49.964;7.890;2022-10-16T00:56:54;4.13;;;2.83;;
15295;SDS011;7749;49.964;7.890;2022-10-16T00:59:28;3.37;;;2.40;;
15295;SDS011;7749;49.964;7.890;2022-10-16T01:01:58;3.90;;;2.40;;
15295;SDS011;7749;49.964;7.890;2022-10-16T01:04:26;7.07;;;2.40;;
15295;SDS011;7749;49.964;7.890;2022-10-16T01:12:50;4.70;;;2.73;;
15295;SDS011;7749;49.964;7.890;2022-10-16T01:15:26;4.83;;;2.10;;
15295;SDS011;7749;49.964;7.890;2022-10-16T01:18:11;3.83;;;1.90;;
15295;SDS011;7749;49.964;7.890;2022-10-16T01:20:45;2.07;;;1.53;;
15295;SDS011;7749;49.964;7.890;2022-10-16T01:23:29;5.03;;;1.70;;
15295;SDS011;7749;49.964;7.890;2022-10-16T01:26:31;5.07;;;1.83;;
15295;SDS011;7749;49.964;7.890;2022-10-16T01:29:29;4.47;;;1.90;;
15295;SDS011;7749;49.964;7.890;2022-10-16T01:32:05;7.90;;;1.57;;
15295;SDS011;7749;49.964;7.890;2022-10-16T01:37:25;3.47;;;2.07;;
15295;SDS011;7749;49.964;7.890;2022-10-16T01:39:58;3.77;;;2.00;;
15295;SDS011;7749;49.964;7.890;2022-10-16T01:42:31;5.13;;;1.70;;
15295;SDS011;7749;49.964;7.890;2022-10-16T01:45:04;2.83;;;2.10;;
15295;SDS011;7749;49.964;7.890;2022-10-16T01:47:34;7.10;;;2.10;;
15295;SDS011;7749;49.964;7.890;2022-10-16T01:50:03;8.47;;;2.03;;
15295;SDS011;7749;49.964;7.890;2022-10-16T01:52:34;6.40;;;2.00;;
15295;SDS011;7749;49.964;7.890;2022-10-16T01:55:04;4.07;;;1.97;;
15295;SDS011;7749;49.964;7.890;2022-10-16T01:57:36;7.13;;;1.70;;
15295;SDS011;7749;49.964;7.890;2022-10-16T02:00:08;3.93;;;1.93;;
15295;SDS011;7749;49.964;7.890;2022-10-16T02:02:40;7.67;;;2.10;;
15295;SDS011;7749;49.964;7.890;2022-10-16T02:05:20;5.30;;;2.00;;
15295;SDS011;7749;49.964;7.890;2022-10-16T02:07:48;2.67;;;1.83;;
15295;SDS011;7749;49.964;7.890;2022-10-16T02:10:16;4.20;;;1.97;;
15295;SDS011;7749;49.964;7.890;2022-10-16T02:12:46;4.57;;;2.00;;
15295;SDS011;7749;49.964;7.890;2022-10-16T02:15:23;4.33;;;1.83;;
15295;SDS011;7749;49.964;7.890;2022-10-16T02:17:51;4.90;;;2.93;;
15295;SDS011;7749;49.964;7.890;2022-10-16T02:20:19;5.60;;;1.83;;
15295;SDS011;7749;49.964;7.890;2022-10-16T02:22:54;6.77;;;2.83;;
15295;SDS011;7749;49.964;7.890;2022-10-16T02:25:30;5.57;;;2.30;;
15295;SDS011;7749;49.964;7.890;2022-10-16T02:30:32;4.80;;;2.13;;
15295;SDS011;7749;49.964;7.890;2022-10-16T02:33:15;5.70;;;2.10;;
15295;SDS011;7749;49.964;7.890;2022-10-16T02:35:44;7.00;;;2.33;;
15295;SDS011;7749;49.964;7.890;2022-10-16T02:38:15;5.00;;;2.37;;
15295;SDS011;7749;49.964;7.890;2022-10-16T02:40:44;5.50;;;2.33;;
15295;SDS011;7749;49.964;7.890;2022-10-16T02:43:12;5.03;;;2.30;;
15295;SDS011;7749;49.964;7.890;2022-10-16T02:45:39;4.70;;;2.50;;
15295;SDS011;7749;49.964;7.890;2022-10-16T02:48:07;5.83;;;2.77;;
15295;SDS011;7749;49.964;7.890;2022-10-16T02:50:35;2.70;;;2.33;;
15295;SDS011;7749;49.964;7.890;2022-10-16T02:53:03;4.10;;;2.30;;
15295;SDS011;7749;49.964;7.890;2022-10-16T02:55:30;5.40;;;2.33;;
15295;SDS011;7749;49.964;7.890;2022-10-16T02:57:58;5.43;;;1.97;;
15295;SDS011;7749;49.964;7.890;2022-10-16T03:00:25;4.97;;;1.80;;
15295;SDS011;7749;49.964;7.890;2022-10-16T03:02:53;3.80;;;1.83;;
15295;SDS011;7749;49.964;7.890;2022-10-16T03:05:21;4.40;;;1.80;;
15295;SDS011;7749;49.964;7.890;2022-10-16T03:07:48;6.13;;;1.87;;
15295;SDS011;7749;49.964;7.890;2022-10-16T03:10:17;6.23;;;2.13;;
15295;SDS011;7749;49.964;7.890;2022-10-16T03:12:45;6.93;;;2.07;;
15295;SDS011;7749;49.964;7.890;2022-10-16T03:15:12;7.27;;;2.20;;
15295;SDS011;7749;49.964;7.890;2022-10-16T03:17:40;5.10;;;1.80;;
15295;SDS011;7749;49.964;7.890;2022-10-16T03:20:08;3.13;;;1.90;;
15295;SDS011;7749;49.964;7.890;2022-10-16T03:22:35;3.20;;;1.80;;
15295;SDS011;7749;49.964;7.890;2022-10-16T03:25:03;3.67;;;2.17;;
15295;SDS011;7749;49.964;7.890;2022-10-16T03:27:31;3.20;;;1.60;;
15295;SDS011;7749;49.964;7.890;2022-10-16T03:29:59;7.07;;;3.20;;
15295;SDS011;7749;49.964;7.890;2022-10-16T03:32:26;2.80;;;2.50;;
15295;SDS011;7749;49.964;7.890;2022-10-16T03:34:55;8.80;;;2.20;;
15295;SDS011;7749;49.964;7.890;2022-10-16T03:37:23;5.40;;;2.50;;
15295;SDS011;7749;49.964;7.890;2022-10-16T03:39:52;6.43;;;1.97;;
15295;SDS011;7749;49.964;7.890;2022-10-16T03:42:20;5.47;;;4.00;;
15295;SDS011;7749;49.964;7.890;2022-10-16T03:44:47;5.07;;;2.43;;
15295;SDS011;7749;49.964;7.890;2022-10-16T03:47:15;2.23;;;2.00;;
15295;SDS011;7749;49.964;7.890;2022-10-16T03:49:47;10.93;;;6.33;;
15295;SDS011;7749;49.964;7.890;2022-10-16T03:52:15;16.33;;;11.10;;
15295;SDS011;7749;49.964;7.890;2022-10-16T03:54:48;10.23;;;5.57;;
15295;SDS011;7749;49.964;7.890;2022-10-16T03:57:16;3.67;;;2.33;;
15295;SDS011;7749;49.964;7.890;2022-10-16T03:59:44;5.13;;;2.57;;
15295;SDS011;7749;49.964;7.890;2022-10-16T04:02:12;2.83;;;1.87;;
15295;SDS011;7749;49.964;7.890;2022-10-16T04:04:40;3.27;;;2.33;;
15295;SDS011;7749;49.964;7.890;2022-10-16T04:07:07;3.30;;;2.40;;
15295;SDS011;7749;49.964;7.890;2022-10-16T04:09:35;3.70;;;1.60;;
15295;SDS011;7749;49.964;7.890;2022-10-16T04:12:03;3.33;;;1.67;;
15295;SDS011;7749;49.964;7.890;2022-10-16T04:14:30;2.63;;;1.30;;
15295;SDS011;7749;49.964;7.890;2022-10-16T04:16:58;5.23;;;1.47;;
15295;SDS011;7749;49.964;7.890;2022-10-16T04:19:25;4.73;;;1.70;;
15295;SDS011;7749;49.964;7.890;2022-10-16T04:21:53;3.93;;;1.67;;
15295;SDS011;7749;49.964;7.890;2022-10-16T04:24:21;6.30;;;2.00;;
15295;SDS011;7749;49.964;7.890;2022-10-16T04:26:48;5.23;;;1.67;;
15295;SDS011;7749;49.964;7.890;2022-10-16T04:29:16;4.23;;;1.70;;
15295;SDS011;7749;49.964;7.890;2022-10-16T04:31:43;2.70;;;1.73;;
15295;SDS011;7749;49.964;7.890;2022-10-16T04:34:11;4.73;;;1.63;;
15295;SDS011;7749;49.964;7.890;2022-10-16T04:36:39;3.43;;;1.33;;
15295;SDS011;7749;49.964;7.890;2022-10-16T04:39:06;3.83;;;1.50;;
15295;SDS011;7749;49.964;7.890;2022-10-16T04:41:34;4.07;;;1.50;;
15295;SDS011;7749;49.964;7.890;2022-10-16T04:44:01;3.33;;;2.60;;
15295;SDS011;7749;49.964;7.890;2022-10-16T04:46:29;4.70;;;1.70;;
15295;SDS011;7749;49.964;7.890;2022-10-16T04:48:57;3.70;;;1.80;;
15295;SDS011;7749;49.964;7.890;2022-10-16T04:51:25;4.13;;;1.90;;
15295;SDS011;7749;49.964;7.890;2022-10-16T04:53:53;4.07;;;1.97;;
15295;SDS011;7749;49.964;7.890;2022-10-16T04:56:22;3.97;;;2.03;;
15295;SDS011;7749;49.964;7.890;2022-10-16T04:58:49;4.70;;;2.07;;
15295;SDS011;7749;49.964;7.890;2022-10-16T05:01:17;2.70;;;2.20;;
15295;SDS011;7749;49.964;7.890;2022-10-16T05:03:45;4.87;;;1.90;;
15295;SDS011;7749;49.964;7.890;2022-10-16T05:06:12;5.00;;;2.40;;
15295;SDS011;7749;49.964;7.890;2022-10-16T05:08:40;4.17;;;2.23;;
15295;SDS011;7749;49.964;7.890;2022-10-16T05:11:08;4.00;;;1.40;;
15295;SDS011;7749;49.964;7.890;2022-10-16T05:13:35;4.60;;;1.83;;
15295;SDS011;7749;49.964;7.890;2022-10-16T05:16:03;4.60;;;2.20;;
15295;SDS011;7749;49.964;7.890;2022-10-16T05:18:31;5.40;;;2.07;;
15295;SDS011;7749;49.964;7.890;2022-10-16T05:20:58;3.23;;;1.80;;
15295;SDS011;7749;49.964;7.890;2022-10-16T05:23:26;2.93;;;2.10;;
15295;SDS011;7749;49.964;7.890;2022-10-16T05:25:54;3.90;;;2.53;;
15295;SDS011;7749;49.964;7.890;2022-10-16T05:28:25;3.43;;;2.67;;
15295;SDS011;7749;49.964;7.890;2022-10-16T05:30:53;3.10;;;2.57;;
15295;SDS011;7749;49.964;7.890;2022-10-16T05:33:22;4.37;;;2.77;;
15295;SDS011;7749;49.964;7.890;2022-10-16T05:35:51;3.50;;;2.70;;
15295;SDS011;7749;49.964;7.890;2022-10-16T05:38:18;6.27;;;3.70;;
15295;SDS011;7749;49.964;7.890;2022-10-16T05:40:52;5.27;;;2.90;;
15295;SDS011;7749;49.964;7.890;2022-10-16T05:43:20;3.30;;;2.30;;
15295;SDS011;7749;49.964;7.890;2022-10-16T05:45:57;4.23;;;2.67;;
15295;SDS011;7749;49.964;7.890;2022-10-16T05:48:26;5.67;;;2.17;;
15295;SDS011;7749;49.964;7.890;2022-10-16T05:50:58;6.20;;;2.40;;
15295;SDS011;7749;49.964;7.890;2022-10-16T05:53:31;4.57;;;3.13;;
15295;SDS011;7749;49.964;7.890;2022-10-16T05:56:00;4.67;;;2.33;;
15295;SDS011;7749;49.964;7.890;2022-10-16T05:58:30;4.47;;;2.00;;
15295;SDS011;7749;49.964;7.890;2022-10-16T06:01:00;2.73;;;2.30;;
15295;SDS011;7749;49.964;7.890;2022-10-16T06:03:30;3.57;;;2.40;;
15295;SDS011;7749;49.964;7.890;2022-10-16T06:05:58;6.17;;;2.60;;
15295;SDS011;7749;49.964;7.890;2022-10-16T06:08:25;4.53;;;2.50;;
15295;SDS011;7749;49.964;7.890;2022-10-16T06:11:00;4.07;;;2.40;;
15295;SDS011;7749;49.964;7.890;2022-10-16T06:13:38;3.77;;;2.17;;
15295;SDS011;7749;49.964;7.890;2022-10-16T06:16:09;5.83;;;2.73;;
15295;SDS011;7749;49.964;7.890;2022-10-16T06:18:38;3.73;;;2.27;;
15295;SDS011;7749;49.964;7.890;2022-10-16T06:21:09;4.00;;;2.80;;
15295;SDS011;7749;49.964;7.890;2022-10-16T06:23:38;2.53;;;2.33;;
15295;SDS011;7749;49.964;7.890;2022-10-16T06:26:10;3.60;;;2.30;;
15295;SDS011;7749;49.964;7.890;2022-10-16T06:28:39;3.30;;;2.00;;
15295;SDS011;7749;49.964;7.890;2022-10-16T06:31:08;4.13;;;2.03;;
15295;SDS011;7749;49.964;7.890;2022-10-16T06:33:37;3.10;;;2.20;;
15295;SDS011;7749;49.964;7.890;2022-10-16T06:36:06;2.67;;;2.30;;
15295;SDS011;7749;49.964;7.890;2022-10-16T06:38:35;7.57;;;2.50;;
15295;SDS011;7749;49.964;7.890;2022-10-16T06:41:04;3.80;;;2.40;;
15295;SDS011;7749;49.964;7.890;2022-10-16T06:43:33;4.63;;;2.50;;
15295;SDS011;7749;49.964;7.890;2022-10-16T06:46:05;2.57;;;2.07;;
15295;SDS011;7749;49.964;7.890;2022-10-16T06:48:36;4.47;;;2.03;;
15295;SDS011;7749;49.964;7.890;2022-10-16T06:51:14;3.23;;;2.37;;
15295;SDS011;7749;49.964;7.890;2022-10-16T06:53:51;5.83;;;3.33;;
15295;SDS011;7749;49.964;7.890;2022-10-16T06:56:30;4.63;;;3.10;;
15295;SDS011;7749;49.964;7.890;2022-10-16T06:58:59;7.83;;;2.80;;
15295;SDS011;7749;49.964;7.890;2022-10-16T07:01:27;7.77;;;3.00;;
15295;SDS011;7749;49.964;7.890;2022-10-16T07:03:55;14.53;;;4.67;;
15295;SDS011;7749;49.964;7.890;2022-10-16T07:06:24;5.87;;;3.97;;
15295;SDS011;7749;49.964;7.890;2022-10-16T07:08:52;8.37;;;5.63;;
15295;SDS011;7749;49.964;7.890;2022-10-16T07:11:21;5.37;;;3.77;;
15295;SDS011;7749;49.964;7.890;2022-10-16T07:13:50;6.90;;;3.63;;
15295;SDS011;7749;49.964;7.890;2022-10-16T07:16:26;4.40;;;3.60;;
15295;SDS011;7749;49.964;7.890;2022-10-16T07:18:55;4.53;;;3.40;;
15295;SDS011;7749;49.964;7.890;2022-10-16T07:21:28;10.57;;;5.77;;
15295;SDS011;7749;49.964;7.890;2022-10-16T07:23:58;5.23;;;3.70;;
15295;SDS011;7749;49.964;7.890;2022-10-16T07:26:27;7.87;;;3.20;;
15295;SDS011;7749;49.964;7.890;2022-10-16T07:28:56;5.60;;;3.67;;
15295;SDS011;7749;49.964;7.890;2022-10-16T07:31:24;4.10;;;3.17;;
15295;SDS011;7749;49.964;7.890;2022-10-16T07:33:52;6.23;;;2.80;;
15295;SDS011;7749;49.964;7.890;2022-10-16T07:36:20;5.33;;;3.23;;
15295;SDS011;7749;49.964;7.890;2022-10-16T07:38:52;2.93;;;2.73;;
15295;SDS011;7749;49.964;7.890;2022-10-16T07:41:24;4.40;;;3.37;;
15295;SDS011;7749;49.964;7.890;2022-10-16T07:43:52;5.03;;;3.60;;
15295;SDS011;7749;49.964;7.890;2022-10-16T07:46:21;3.67;;;3.27;;
15295;SDS011;7749;49.964;7.890;2022-10-16T07:48:49;5.67;;;2.90;;
15295;SDS011;7749;49.964;7.890;2022-10-16T07:51:18;4.60;;;3.80;;
15295;SDS011;7749;49.964;7.890;2022-10-16T07:53:47;4.50;;;3.17;;
15295;SDS011;7749;49.964;7.890;2022-10-16T07:56:16;4.03;;;3.17;;
15295;SDS011;7749;49.964;7.890;2022-10-16T07:58:44;4.30;;;2.97;;
15295;SDS011;7749;49.964;7.890;2022-10-16T08:01:13;3.03;;;2.73;;
15295;SDS011;7749;49.964;7.890;2022-10-16T08:03:46;3.60;;;2.70;;
15295;SDS011;7749;49.964;7.890;2022-10-16T08:06:16;4.77;;;3.10;;
15295;SDS011;7749;49.964;7.890;2022-10-16T08:08:51;4.07;;;3.20;;
15295;SDS011;7749;49.964;7.890;2022-10-16T08:11:18;4.30;;;3.07;;
15295;SDS011;7749;49.964;7.890;2022-10-16T08:13:46;3.33;;;2.70;;
15295;SDS011;7749;49.964;7.890;2022-10-16T08:16:14;3.53;;;2.60;;
15295;SDS011;7749;49.964;7.890;2022-10-16T08:18:41;7.27;;;3.13;;
15295;SDS011;7749;49.964;7.890;2022-10-16T08:21:16;3.97;;;2.87;;
15295;SDS011;7749;49.964;7.890;2022-10-16T08:23:48;3.83;;;3.13;;
15295;SDS011;7749;49.964;7.890;2022-10-16T08:26:24;3.70;;;3.07;;
15295;SDS011;7749;49.964;7.890;2022-10-16T08:28:53;3.70;;;3.13;;
15295;SDS011;7749;49.964;7.890;2022-10-16T08:31:22;4.90;;;2.93;;
15295;SDS011;7749;49.964;7.890;2022-10-16T08:33:50;3.63;;;3.33;;
15295;SDS011;7749;49.964;7.890;2022-10-16T08:36:19;3.90;;;3.40;;
15295;SDS011;7749;49.964;7.890;2022-10-16T08:38:47;3.63;;;3.30;;
15295;SDS011;7749;49.964;7.890;2022-10-16T08:49:37;3.60;;;3.30;;
15295;SDS011;7749;49.964;7.890;2022-10-16T08:52:10;6.13;;;2.97;;
15295;SDS011;7749;49.964;7.890;2022-10-16T08:54:41;5.50;;;3.53;;
15295;SDS011;7749;49.964;7.890;2022-10-16T08:57:22;5.67;;;3.67;;
15295;SDS011;7749;49.964;7.890;2022-10-16T08:59:53;4.60;;;3.20;;
15295;SDS011;7749;49.964;7.890;2022-10-16T09:08:51;4.57;;;3.40;;
15295;SDS011;7749;49.964;7.890;2022-10-16T09:11:43;7.13;;;3.60;;
15295;SDS011;7749;49.964;7.890;2022-10-16T09:17:20;3.93;;;2.83;;
15295;SDS011;7749;49.964;7.890;2022-10-16T09:19:56;4.40;;;2.90;;
15295;SDS011;7749;49.964;7.890;2022-10-16T09:22:40;3.10;;;2.80;;
15295;SDS011;7749;49.964;7.890;2022-10-16T09:25:12;3.50;;;3.13;;
15295;SDS011;7749;49.964;7.890;2022-10-16T09:27:42;4.43;;;2.67;;
15295;SDS011;7749;49.964;7.890;2022-10-16T09:30:14;4.05;;;2.78;;
15295;SDS011;7749;49.964;7.890;2022-10-16T09:32:47;3.97;;;3.35;;
15295;SDS011;7749;49.964;7.890;2022-10-16T09:35:27;3.97;;;3.20;;
15295;SDS011;7749;49.964;7.890;2022-10-16T09:38:23;5.05;;;3.67;;
15295;SDS011;7749;49.964;7.890;2022-10-16T09:41:02;3.88;;;3.50;;
15295;SDS011;7749;49.964;7.890;2022-10-16T09:43:42;4.13;;;3.35;;
15295;SDS011;7749;49.964;7.890;2022-10-16T09:46:25;5.03;;;3.60;;
15295;SDS011;7749;49.964;7.890;2022-10-16T09:48:59;4.00;;;3.10;;
15295;SDS011;7749;49.964;7.890;2022-10-16T09:51:33;4.80;;;3.10;;
15295;SDS011;7749;49.964;7.890;2022-10-16T09:54:13;5.82;;;3.03;;
15295;SDS011;7749;49.964;7.890;2022-10-16T09:56:46;4.28;;;3.78;;
15295;SDS011;7749;49.964;7.890;2022-10-16T09:59:19;4.32;;;3.92;;
15295;SDS011;7749;49.964;7.890;2022-10-16T10:01:51;3.90;;;3.47;;
15295;SDS011;7749;49.964;7.890;2022-10-16T10:04:23;3.38;;;3.08;;
15295;SDS011;7749;49.964;7.890;2022-10-16T10:06:54;5.28;;;3.47;;
15295;SDS011;7749;49.964;7.890;2022-10-16T10:12:04;4.47;;;4.07;;
15295;SDS011;7749;49.964;7.890;2022-10-16T10:14:47;3.35;;;3.03;;
15295;SDS011;7749;49.964;7.890;2022-10-16T10:17:21;5.10;;;4.47;;
15295;SDS011;7749;49.964;7.890;2022-10-16T10:20:00;3.78;;;3.10;;
15295;SDS011;7749;49.964;7.890;2022-10-16T10:22:43;3.65;;;3.35;;
15295;SDS011;7749;49.964;7.890;2022-10-16T10:30:24;4.95;;;2.60;;
15295;SDS011;7749;49.964;7.890;2022-10-16T10:36:05;3.22;;;2.78;;
15295;SDS011;7749;49.964;7.890;2022-10-16T10:38:54;4.47;;;3.15;;
15295;SDS011;7749;49.964;7.890;2022-10-16T10:47:59;4.07;;;3.28;;
15295;SDS011;7749;49.964;7.890;2022-10-16T10:58:59;4.22;;;3.30;;
15295;SDS011;7749;49.964;7.890;2022-10-16T11:01:35;5.93;;;4.30;;
15295;SDS011;7749;49.964;7.890;2022-10-16T11:07:15;4.75;;;3.97;;
15295;SDS011;7749;49.964;7.890;2022-10-16T11:09:47;4.93;;;3.88;;
15295;SDS011;7749;49.964;7.890;2022-10-16T11:12:20;4.38;;;3.70;;
15295;SDS011;7749;49.964;7.890;2022-10-16T11:17:52;4.25;;;3.60;;
15295;SDS011;7749;49.964;7.890;2022-10-16T11:23:18;3.97;;;3.58;;
15295;SDS011;7749;49.964;7.890;2022-10-16T11:25:52;3.95;;;3.53;;
15295;SDS011;7749;49.964;7.890;2022-10-16T11:28:25;6.13;;;3.78;;
15295;SDS011;7749;49.964;7.890;2022-10-16T11:31:11;5.00;;;4.50;;
15295;SDS011;7749;49.964;7.890;2022-10-16T11:36:41;7.57;;;4.40;;
15295;SDS011;7749;49.964;7.890;2022-10-16T11:39:31;4.18;;;3.38;;
15295;SDS011;7749;49.964;7.890;2022-10-16T11:55:44;3.53;;;3.22;;
15295;SDS011;7749;49.964;7.890;2022-10-16T12:01:04;3.70;;;2.88;;
15295;SDS011;7749;49.964;7.890;2022-10-16T12:09:02;4.25;;;2.75;;
15295;SDS011;7749;49.964;7.890;2022-10-16T12:11:33;6.78;;;3.45;;
15295;SDS011;7749;49.964;7.890;2022-10-16T12:16:56;5.53;;;3.65;;
15295;SDS011;7749;49.964;7.890;2022-10-16T12:19:29;4.05;;;3.63;;
15295;SDS011;7749;49.964;7.890;2022-10-16T12:21:58;4.32;;;2.63;;
15295;SDS011;7749;49.964;7.890;2022-10-16T12:27:32;3.33;;;2.42;;
15295;SDS011;7749;49.964;7.890;2022-10-16T12:30:01;3.03;;;2.50;;
15295;SDS011;7749;49.964;7.890;2022-10-16T12:35:19;5.25;;;2.15;;
15295;SDS011;7749;49.964;7.890;2022-10-16T12:37:49;3.58;;;2.45;;
15295;SDS011;7749;49.964;7.890;2022-10-16T12:42:54;4.07;;;3.13;;
15295;SDS011;7749;49.964;7.890;2022-10-16T12:45:32;4.20;;;2.70;;
15295;SDS011;7749;49.964;7.890;2022-10-16T12:48:01;4.18;;;2.78;;
15295;SDS011;7749;49.964;7.890;2022-10-16T12:50:36;3.38;;;2.30;;
15295;SDS011;7749;49.964;7.890;2022-10-16T12:53:19;2.75;;;2.50;;
15295;SDS011;7749;49.964;7.890;2022-10-16T13:02:06;2.75;;;2.00;;
15295;SDS011;7749;49.964;7.890;2022-10-16T13:13:05;2.13;;;1.70;;
15295;SDS011;7749;49.964;7.890;2022-10-16T13:24:02;2.33;;;1.50;;
15295;SDS011;7749;49.964;7.890;2022-10-16T13:29:19;3.65;;;2.42;;
15295;SDS011;7749;49.964;7.890;2022-10-16T13:31:47;3.97;;;1.80;;
15295;SDS011;7749;49.964;7.890;2022-10-16T13:34:17;1.65;;;1.50;;
15295;SDS011;7749;49.964;7.890;2022-10-16T13:36:48;3.75;;;1.42;;
15295;SDS011;7749;49.964;7.890;2022-10-16T13:41:58;2.42;;;2.00;;
15295;SDS011;7749;49.964;7.890;2022-10-16T13:44:41;2.85;;;1.95;;
15295;SDS011;7749;49.964;7.890;2022-10-16T13:47:22;3.17;;;1.77;;
15295;SDS011;7749;49.964;7.890;2022-10-16T13:52:39;2.10;;;1.85;;
15295;SDS011;7749;49.964;7.890;2022-10-16T13:55:15;3.63;;;2.05;;
15295;SDS011;7749;49.964;7.890;2022-10-16T13:58:04;2.55;;;1.80;;
15295;SDS011;7749;49.964;7.890;2022-10-16T14:01:00;1.92;;;1.80;;
15295;SDS011;7749;49.964;7.890;2022-10-16T14:03:41;2.92;;;2.20;;
15295;SDS011;7749;49.964;7.890;2022-10-16T14:06:14;3.25;;;1.73;;
15295;SDS011;7749;49.964;7.890;2022-10-16T14:11:49;3.00;;;1.90;;
15295;SDS011;7749;49.964;7.890;2022-10-16T14:14:20;2.85;;;1.90;;
15295;SDS011;7749;49.964;7.890;2022-10-16T14:16:53;3.55;;;1.80;;
15295;SDS011;7749;49.964;7.890;2022-10-16T14:19:28;2.05;;;1.85;;
15295;SDS011;7749;49.964;7.890;2022-10-16T14:21:58;2.90;;;1.83;;
15295;SDS011;7749;49.964;7.890;2022-10-16T14:24:35;2.58;;;1.77;;
15295;SDS011;7749;49.964;7.890;2022-10-16T14:27:28;2.60;;;1.70;;
15295;SDS011;7749;49.964;7.890;2022-10-16T14:30:22;2.97;;;2.10;;
15295;SDS011;7749;49.964;7.890;2022-10-16T14:33:52;1.98;;;1.80;;
15295;SDS011;7749;49.964;7.890;2022-10-16T14:38:43;3.67;;;2.17;;
15295;SDS011;7749;49.964;7.890;2022-10-16T14:41:46;1.75;;;1.58;;
15295;SDS011;7749;49.964;7.890;2022-10-16T14:44:19;2.53;;;1.88;;
15295;SDS011;7749;49.964;7.890;2022-10-16T14:46:51;2.13;;;1.92;;
15295;SDS011;7749;49.964;7.890;2022-10-16T14:49:19;1.52;;;1.42;;
15295;SDS011;7749;49.964;7.890;2022-10-16T14:51:49;3.97;;;1.60;;
15295;SDS011;7749;49.964;7.890;2022-10-16T14:54:17;2.60;;;2.00;;
15295;SDS011;7749;49.964;7.890;2022-10-16T14:56:47;1.70;;;1.60;;
15295;SDS011;7749;49.964;7.890;2022-10-16T14:59:23;2.60;;;2.40;;
15295;SDS011;7749;49.964;7.890;2022-10-16T15:01:55;2.92;;;1.98;;
15295;SDS011;7749;49.964;7.890;2022-10-16T15:04:23;2.55;;;2.30;;
15295;SDS011;7749;49.964;7.890;2022-10-16T15:06:51;3.92;;;2.40;;
15295;SDS011;7749;49.964;7.890;2022-10-16T15:09:18;4.50;;;2.60;;
15295;SDS011;7749;49.964;7.890;2022-10-16T15:11:46;2.95;;;2.40;;
15295;SDS011;7749;49.964;7.890;2022-10-16T15:14:19;2.05;;;1.88;;
15295;SDS011;7749;49.964;7.890;2022-10-16T15:16:47;2.85;;;2.13;;
15295;SDS011;7749;49.964;7.890;2022-10-16T15:19:14;2.60;;;2.40;;
15295;SDS011;7749;49.964;7.890;2022-10-16T15:21:42;2.78;;;2.25;;
15295;SDS011;7749;49.964;7.890;2022-10-16T15:24:11;4.43;;;2.80;;
15295;SDS011;7749;49.964;7.890;2022-10-16T15:26:45;3.25;;;2.40;;
15295;SDS011;7749;49.964;7.890;2022-10-16T15:29:13;2.78;;;2.58;;
15295;SDS011;7749;49.964;7.890;2022-10-16T15:31:41;3.22;;;2.40;;
15295;SDS011;7749;49.964;7.890;2022-10-16T15:34:14;4.50;;;2.60;;
15295;SDS011;7749;49.964;7.890;2022-10-16T15:36:42;3.47;;;2.65;;
15295;SDS011;7749;49.964;7.890;2022-10-16T15:39:14;4.38;;;2.40;;
15295;SDS011;7749;49.964;7.890;2022-10-16T15:41:44;2.90;;;2.53;;
15295;SDS011;7749;49.964;7.890;2022-10-16T15:44:15;2.40;;;2.20;;
15295;SDS011;7749;49.964;7.890;2022-10-16T15:46:43;5.40;;;2.30;;
15295;SDS011;7749;49.964;7.890;2022-10-16T15:49:10;4.72;;;2.35;;
15295;SDS011;7749;49.964;7.890;2022-10-16T15:51:39;2.53;;;2.33;;
15295;SDS011;7749;49.964;7.890;2022-10-16T15:54:08;3.60;;;2.53;;
15295;SDS011;7749;49.964;7.890;2022-10-16T15:56:36;3.40;;;2.63;;
15295;SDS011;7749;49.964;7.890;2022-10-16T15:59:04;3.38;;;2.60;;
15295;SDS011;7749;49.964;7.890;2022-10-16T16:01:34;3.38;;;2.83;;
15295;SDS011;7749;49.964;7.890;2022-10-16T16:04:02;4.03;;;2.47;;
15295;SDS011;7749;49.964;7.890;2022-10-16T16:06:41;4.30;;;3.17;;
15295;SDS011;7749;49.964;7.890;2022-10-16T16:09:12;3.17;;;2.47;;
15295;SDS011;7749;49.964;7.890;2022-10-16T16:11:41;3.40;;;2.40;;
15295;SDS011;7749;49.964;7.890;2022-10-16T16:14:12;3.00;;;2.50;;
15295;SDS011;7749;49.964;7.890;2022-10-16T16:16:40;3.47;;;2.50;;
15295;SDS011;7749;49.964;7.890;2022-10-16T16:19:09;3.90;;;2.58;;
15295;SDS011;7749;49.964;7.890;2022-10-16T16:21:38;7.72;;;2.85;;
15295;SDS011;7749;49.964;7.890;2022-10-16T16:24:06;4.47;;;2.70;;
15295;SDS011;7749;49.964;7.890;2022-10-16T16:26:35;3.72;;;2.47;;
15295;SDS011;7749;49.964;7.890;2022-10-16T16:29:11;6.10;;;2.90;;
15295;SDS011;7749;49.964;7.890;2022-10-16T16:31:40;4.30;;;2.85;;
15295;SDS011;7749;49.964;7.890;2022-10-16T16:34:08;6.38;;;3.15;;
15295;SDS011;7749;49.964;7.890;2022-10-16T16:36:36;3.65;;;3.15;;
15295;SDS011;7749;49.964;7.890;2022-10-16T16:39:04;3.92;;;3.20;;
15295;SDS011;7749;49.964;7.890;2022-10-16T16:41:32;3.80;;;2.85;;
15295;SDS011;7749;49.964;7.890;2022-10-16T16:44:04;6.20;;;3.10;;
15295;SDS011;7749;49.964;7.890;2022-10-16T16:46:34;9.48;;;3.22;;
15295;SDS011;7749;49.964;7.890;2022-10-16T16:49:02;3.17;;;2.83;;
15295;SDS011;7749;49.964;7.890;2022-10-16T16:51:30;6.82;;;3.30;;
15295;SDS011;7749;49.964;7.890;2022-10-16T16:54:01;4.00;;;3.60;;
15295;SDS011;7749;49.964;7.890;2022-10-16T16:56:29;4.20;;;2.90;;
15295;SDS011;7749;49.964;7.890;2022-10-16T16:58:57;4.20;;;3.58;;
15295;SDS011;7749;49.964;7.890;2022-10-16T17:01:25;4.55;;;3.45;;
15295;SDS011;7749;49.964;7.890;2022-10-16T17:03:54;8.07;;;3.42;;
15295;SDS011;7749;49.964;7.890;2022-10-16T17:06:24;6.03;;;3.63;;
15295;SDS011;7749;49.964;7.890;2022-10-16T17:08:54;8.98;;;3.65;;
15295;SDS011;7749;49.964;7.890;2022-10-16T17:11:22;3.47;;;3.17;;
15295;SDS011;7749;49.964;7.890;2022-10-16T17:13:52;6.03;;;4.68;;
15295;SDS011;7749;49.964;7.890;2022-10-16T17:16:27;5.65;;;5.00;;
15295;SDS011;7749;49.964;7.890;2022-10-16T17:19:01;7.72;;;6.03;;
15295;SDS011;7749;49.964;7.890;2022-10-16T17:21:34;5.90;;;4.80;;
15295;SDS011;7749;49.964;7.890;2022-10-16T17:24:02;6.90;;;4.87;;
15295;SDS011;7749;49.964;7.890;2022-10-16T17:26:31;6.40;;;5.27;;
15295;SDS011;7749;49.964;7.890;2022-10-16T17:29:00;7.97;;;5.47;;
15295;SDS011;7749;49.964;7.890;2022-10-16T17:31:29;6.40;;;4.80;;
15295;SDS011;7749;49.964;7.890;2022-10-16T17:33:58;5.83;;;4.70;;
15295;SDS011;7749;49.964;7.890;2022-10-16T17:36:27;10.33;;;4.50;;
15295;SDS011;7749;49.964;7.890;2022-10-16T17:38:59;6.83;;;4.90;;
15295;SDS011;7749;49.964;7.890;2022-10-16T17:41:31;9.07;;;5.90;;
15295;SDS011;7749;49.964;7.890;2022-10-16T17:43:59;7.57;;;4.50;;
15295;SDS011;7749;49.964;7.890;2022-10-16T17:46:27;6.77;;;5.13;;